Time;durP1;ratioP1;P1;durP2;ratioP2;P2;SDS_P1;SDS_P2;PMS_P1;PMS_P2;Temp;Humidity;BMP_temperature;BMP_pressure;BME280_temperature;BME280_humidity;BME280_pressure;Samples;Min_cycle;Max_cycle;Signal;HPM_P1;HPM_P2
2023/12/07 00:01:53;;;;;;;;;;;2.80;99.90;;;;;;5035045;28;20403;-71
2023/12/07 00:04:19;;;;;;;;;;;2.80;99.90;;;;;;5027983;28;19925;-71
2023/12/07 00:06:47;;;;;;;;;;;2.80;99.90;;;;;;5032426;28;19975;-71
2023/12/07 00:09:14;;;;;;;;;;;2.80;99.90;;;;;;5041904;28;20292;-70
2023/12/07 00:11:41;;;;;;;;;;;2.80;99.90;;;;;;5054216;28;19939;-69
2023/12/07 00:14:08;;;;;;;;;;;2.90;99.90;;;;;;5034007;28;19931;-70
2023/12/07 00:16:36;;;;;;;;;;;2.90;99.90;;;;;;5021769;28;19980;-71
2023/12/07 00:19:03;;;;;;;;;;;2.90;99.90;;;;;;5032760;28;19987;-70
2023/12/07 00:21:30;;;;;;;;;;;2.90;99.90;;;;;;5033592;28;19925;-71
2023/12/07 00:23:58;;;;;;;;;;;3.00;99.90;;;;;;5034167;28;19925;-71
2023/12/07 00:26:25;;;;;;;;;;;3.00;99.90;;;;;;5034110;28;19947;-72
2023/12/07 00:28:52;;;;;;;;;;;3.00;99.90;;;;;;5034096;28;19925;-72
2023/12/07 00:31:20;;;;;;;;;;;2.90;99.90;;;;;;5032597;28;19965;-72
2023/12/07 00:33:47;;;;;;;;;;;2.90;99.90;;;;;;5033272;28;19933;-72
2023/12/07 00:36:14;;;;;;;;;;;2.80;99.90;;;;;;5033433;28;20054;-71
2023/12/07 00:38:40;;;;;;;;;;;2.70;99.90;;;;;;5031404;28;19979;-71
2023/12/07 00:41:09;;;;;;;;;;;2.70;99.90;;;;;;5031282;28;20012;-72
2023/12/07 00:43:35;;;;;;;;;;;2.70;99.90;;;;;;5033771;28;19929;-71
2023/12/07 00:46:02;;;;;;;;;;;2.70;99.90;;;;;;5021709;28;19925;-72
2023/12/07 00:48:29;;;;;;;;;;;2.80;99.90;;;;;;5027542;28;19971;-73
2023/12/07 00:50:56;;;;;;;;;;;2.70;99.90;;;;;;5033837;28;19925;-71
2023/12/07 00:53:26;;;;;;;;;;;2.70;99.90;;;;;;5033051;28;19925;-72
2023/12/07 00:55:53;;;;;;;;;;;2.70;99.90;;;;;;5031724;28;19925;-72
2023/12/07 00:58:22;;;;;;;;;;;2.70;99.90;;;;;;5032792;28;19979;-72
2023/12/07 01:00:49;;;;;;;;;;;2.70;99.90;;;;;;5034304;28;19933;-73
2023/12/07 01:03:16;;;;;;;;;;;2.70;99.90;;;;;;5034274;28;19987;-72
2023/12/07 01:05:43;;;;;;;;;;;2.80;99.90;;;;;;5023782;28;19925;-71
2023/12/07 01:08:10;;;;;;;;;;;2.70;99.90;;;;;;5032996;28;20016;-71
2023/12/07 01:10:36;;;;;;;;;;;2.80;99.90;;;;;;5051492;28;19924;-71
2023/12/07 01:13:03;;;;;;;;;;;2.90;99.90;;;;;;5037434;28;20497;-71
2023/12/07 01:15:32;;;;;;;;;;;2.90;99.90;;;;;;5034008;28;20376;-72
2023/12/07 01:18:00;;;;;;;;;;;2.90;99.90;;;;;;5029732;28;20398;-70
2023/12/07 01:20:27;;;;;;;;;;;2.90;99.90;;;;;;5031426;28;19925;-71
2023/12/07 01:22:55;;;;;;;;;;;2.90;99.90;;;;;;5022788;28;19925;-73
2023/12/07 01:25:22;;;;;;;;;;;2.90;99.90;;;;;;5032428;28;19925;-73
2023/12/07 01:27:49;;;;;;;;;;;3.00;99.90;;;;;;5032829;28;20015;-72
2023/12/07 01:30:16;;;;;;;;;;;3.00;99.90;;;;;;5031209;28;20040;-72
2023/12/07 01:32:44;;;;;;;;;;;3.00;99.90;;;;;;5032255;28;19979;-72
2023/12/07 01:35:11;;;;;;;;;;;3.00;99.90;;;;;;5031733;28;19925;-72
2023/12/07 01:37:37;;;;;;;;;;;3.00;99.90;;;;;;5030931;28;19956;-71
2023/12/07 01:40:09;;;;;;;;;;;3.10;99.90;;;;;;5028445;28;19924;-72
2023/12/07 01:42:36;;;;;;;;;;;3.10;99.90;;;;;;5031148;28;20351;-71
2023/12/07 01:45:03;;;;;;;;;;;3.20;99.90;;;;;;5032373;28;20339;-72
2023/12/07 01:47:30;;;;;;;;;;;3.20;99.90;;;;;;5032725;28;19932;-70
2023/12/07 01:49:58;;;;;;;;;;;3.20;99.90;;;;;;5031268;28;20403;-71
2023/12/07 01:52:27;;;;;;;;;;;3.10;99.90;;;;;;5019050;28;19972;-72
2023/12/07 01:54:54;;;;;;;;;;;3.20;99.90;;;;;;5033395;28;19987;-71
2023/12/07 01:57:22;;;;;;;;;;;3.20;99.90;;;;;;5024322;28;19925;-71
2023/12/07 01:59:49;;;;;;;;;;;3.20;99.90;;;;;;5026176;28;20027;-70
2023/12/07 02:02:16;;;;;;;;;;;3.20;99.90;;;;;;5031731;28;19925;-71
2023/12/07 02:04:43;;;;;;;;;;;3.30;99.90;;;;;;5026701;28;19955;-72
2023/12/07 02:07:11;;;;;;;;;;;3.30;99.90;;;;;;5033398;28;19971;-72
2023/12/07 02:09:38;;;;;;;;;;;3.20;99.90;;;;;;5030956;28;19929;-71
2023/12/07 02:12:05;;;;;;;;;;;3.30;99.90;;;;;;5050485;28;19947;-71
2023/12/07 02:14:35;;;;;;;;;;;3.30;99.90;;;;;;5030869;28;20457;-71
2023/12/07 02:17:05;;;;;;;;;;;3.20;99.90;;;;;;5030782;28;20739;-72
2023/12/07 02:19:48;;;;;;;;;;;3.20;99.90;;;;;;5031493;28;20388;-71
2023/12/07 02:22:19;;;;;;;;;;;3.10;99.90;;;;;;5030822;28;19929;-72
2023/12/07 02:24:48;;;;;;;;;;;3.10;99.90;;;;;;5031438;28;19957;-72
2023/12/07 02:27:17;;;;;;;;;;;3.10;99.90;;;;;;5039546;28;20019;-71
2023/12/07 02:29:43;;;;;;;;;;;3.10;99.90;;;;;;5031284;28;19987;-73
2023/12/07 02:32:10;;;;;;;;;;;3.10;99.90;;;;;;5031458;28;20438;-72
2023/12/07 02:34:37;;;;;;;;;;;3.10;99.90;;;;;;5030756;28;20055;-72
2023/12/07 02:37:04;;;;;;;;;;;3.20;99.90;;;;;;5031098;28;20419;-72
2023/12/07 02:39:31;;;;;;;;;;;3.20;99.90;;;;;;5032182;28;20560;-72
2023/12/07 02:41:58;;;;;;;;;;;3.20;99.90;;;;;;5029341;28;19932;-72
2023/12/07 02:44:27;;;;;;;;;;;3.30;99.90;;;;;;5030566;28;19925;-72
2023/12/07 02:46:53;;;;;;;;;;;3.20;99.90;;;;;;5022256;28;19941;-72
2023/12/07 02:49:20;;;;;;;;;;;3.20;99.90;;;;;;5026645;28;19979;-72
2023/12/07 02:51:47;;;;;;;;;;;3.20;99.90;;;;;;5030021;28;19925;-72
2023/12/07 02:54:14;;;;;;;;;;;3.30;99.90;;;;;;5031104;28;19996;-72
2023/12/07 02:56:40;;;;;;;;;;;3.20;99.90;;;;;;5022755;28;19925;-71
2023/12/07 02:59:07;;;;;;;;;;;3.20;99.90;;;;;;5031358;28;19987;-72
2023/12/07 03:01:36;;;;;;;;;;;3.20;99.90;;;;;;5030959;28;20377;-70
2023/12/07 03:04:02;;;;;;;;;;;3.20;99.90;;;;;;5030745;28;19924;-71
2023/12/07 03:06:29;;;;;;;;;;;3.10;99.90;;;;;;5029305;28;19971;-71
2023/12/07 03:08:56;;;;;;;;;;;3.10;99.90;;;;;;5028012;28;20273;-71
2023/12/07 03:11:23;;;;;;;;;;;3.10;99.90;;;;;;5031479;28;19925;-71
2023/12/07 03:13:49;;;;;;;;;;;3.10;99.90;;;;;;5031272;28;20002;-71
2023/12/07 03:16:16;;;;;;;;;;;3.10;99.90;;;;;;5030377;28;19960;-70
2023/12/07 03:18:44;;;;;;;;;;;3.10;99.90;;;;;;5032590;28;20023;-71
2023/12/07 03:21:11;;;;;;;;;;;3.00;99.90;;;;;;5033766;28;20326;-71
2023/12/07 03:23:38;;;;;;;;;;;3.00;99.90;;;;;;5034410;28;19983;-72
2023/12/07 03:26:04;;;;;;;;;;;3.00;99.90;;;;;;5033719;28;19933;-72
2023/12/07 03:28:31;;;;;;;;;;;3.00;99.90;;;;;;5032083;28;19991;-71
2023/12/07 03:30:58;;;;;;;;;;;3.00;99.90;;;;;;5034341;28;19925;-72
2023/12/07 03:33:25;;;;;;;;;;;3.10;99.90;;;;;;5037491;28;20398;-71
2023/12/07 03:35:53;;;;;;;;;;;3.10;99.90;;;;;;5037584;28;20372;-71
2023/12/07 03:38:20;;;;;;;;;;;3.10;99.90;;;;;;5030555;28;19971;-70
2023/12/07 03:40:47;;;;;;;;;;;3.10;99.90;;;;;;5033821;28;19925;-72
2023/12/07 03:43:14;;;;;;;;;;;3.10;99.90;;;;;;5034298;28;19936;-72
2023/12/07 03:45:41;;;;;;;;;;;3.10;99.90;;;;;;5032701;28;19925;-72
2023/12/07 03:48:08;;;;;;;;;;;3.20;99.90;;;;;;5027280;28;19925;-71
2023/12/07 03:50:34;;;;;;;;;;;3.20;99.90;;;;;;5028494;28;19979;-71
2023/12/07 03:53:03;;;;;;;;;;;3.20;99.90;;;;;;5033016;28;19940;-72
2023/12/07 03:55:29;;;;;;;;;;;3.20;99.90;;;;;;5020958;28;19925;-72
2023/12/07 03:57:56;;;;;;;;;;;3.20;99.90;;;;;;5024869;28;19930;-72
2023/12/07 04:00:23;;;;;;;;;;;3.20;99.90;;;;;;5032790;28;20458;-72
2023/12/07 04:02:50;;;;;;;;;;;3.20;99.90;;;;;;5033404;28;19925;-72
2023/12/07 04:05:16;;;;;;;;;;;3.20;99.90;;;;;;5031205;28;19929;-72
2023/12/07 04:07:43;;;;;;;;;;;3.20;99.90;;;;;;5032937;28;19925;-72
2023/12/07 04:10:12;;;;;;;;;;;3.20;99.90;;;;;;5031357;28;19980;-73
2023/12/07 04:12:39;;;;;;;;;;;3.20;99.90;;;;;;5032287;28;19932;-72
2023/12/07 04:15:06;;;;;;;;;;;3.20;99.90;;;;;;5032981;28;19955;-72
2023/12/07 04:17:33;;;;;;;;;;;3.20;99.90;;;;;;5031642;28;19929;-72
2023/12/07 04:19:59;;;;;;;;;;;3.30;99.90;;;;;;5033364;28;19933;-73
2023/12/07 04:22:26;;;;;;;;;;;3.30;99.90;;;;;;5033003;28;19994;-72
2023/12/07 04:24:53;;;;;;;;;;;3.30;99.90;;;;;;5033504;28;20281;-73
2023/12/07 04:27:21;;;;;;;;;;;3.30;99.90;;;;;;5031677;28;19929;-72
2023/12/07 04:29:48;;;;;;;;;;;3.30;99.90;;;;;;5031523;28;19930;-72
2023/12/07 04:32:14;;;;;;;;;;;3.30;99.90;;;;;;5033009;28;19925;-72
2023/12/07 04:34:41;;;;;;;;;;;3.40;99.90;;;;;;5032484;28;19925;-72
2023/12/07 04:37:08;;;;;;;;;;;3.40;99.90;;;;;;5040626;28;20019;-72
2023/12/07 04:39:35;;;;;;;;;;;3.40;99.90;;;;;;5032644;28;19926;-72
2023/12/07 04:42:01;;;;;;;;;;;3.40;99.90;;;;;;5031822;28;20402;-72
2023/12/07 04:44:29;;;;;;;;;;;3.40;99.90;;;;;;5024516;28;19929;-71
2023/12/07 04:46:56;;;;;;;;;;;3.40;99.90;;;;;;5032497;28;19925;-72
2023/12/07 04:49:23;;;;;;;;;;;3.40;99.90;;;;;;5033522;28;19933;-71
2023/12/07 04:51:50;;;;;;;;;;;3.40;99.90;;;;;;5033276;28;19932;-71
2023/12/07 04:54:17;;;;;;;;;;;3.40;99.90;;;;;;5032033;28;19925;-72
2023/12/07 04:56:43;;;;;;;;;;;3.50;99.90;;;;;;5033056;28;19929;-70
2023/12/07 04:59:10;;;;;;;;;;;3.50;99.90;;;;;;5033097;28;19947;-72
2023/12/07 05:01:38;;;;;;;;;;;3.40;99.90;;;;;;5032888;28;19932;-72
2023/12/07 05:04:05;;;;;;;;;;;3.40;99.90;;;;;;5025908;28;19925;-71
2023/12/07 05:06:32;;;;;;;;;;;3.40;99.90;;;;;;5027691;28;20002;-73
2023/12/07 05:08:59;;;;;;;;;;;3.40;99.90;;;;;;5032648;28;19971;-72
2023/12/07 05:11:26;;;;;;;;;;;3.50;99.90;;;;;;5032837;28;19949;-72
2023/12/07 05:13:53;;;;;;;;;;;3.40;99.90;;;;;;5025205;28;20351;-73
2023/12/07 05:16:19;;;;;;;;;;;3.50;99.90;;;;;;5029022;28;19925;-71
2023/12/07 05:18:48;;;;;;;;;;;3.50;99.90;;;;;;5030664;28;19925;-71
2023/12/07 05:21:14;;;;;;;;;;;3.50;99.90;;;;;;5017306;28;19929;-71
2023/12/07 05:23:41;;;;;;;;;;;3.50;99.90;;;;;;5028540;28;19925;-72
2023/12/07 05:26:08;;;;;;;;;;;3.50;99.90;;;;;;5025449;28;19995;-71
2023/12/07 05:28:36;;;;;;;;;;;3.50;99.90;;;;;;5031855;28;19948;-73
2023/12/07 05:31:03;;;;;;;;;;;3.50;99.90;;;;;;5030707;28;19960;-71
2023/12/07 05:33:30;;;;;;;;;;;3.60;99.90;;;;;;5025973;28;19925;-71
2023/12/07 05:36:00;;;;;;;;;;;3.60;99.90;;;;;;5026193;28;19925;-71
2023/12/07 05:38:27;;;;;;;;;;;3.50;99.90;;;;;;5013120;28;20315;-72
2023/12/07 05:40:54;;;;;;;;;;;3.50;99.90;;;;;;5031041;28;20372;-71
2023/12/07 05:43:20;;;;;;;;;;;3.50;99.90;;;;;;5032096;28;20074;-71
2023/12/07 05:45:47;;;;;;;;;;;3.40;99.90;;;;;;5031821;28;19971;-71
2023/12/07 05:48:14;;;;;;;;;;;3.40;99.90;;;;;;5032445;28;20006;-72
2023/12/07 05:50:41;;;;;;;;;;;3.40;99.90;;;;;;5032577;28;19979;-71
2023/12/07 05:53:10;;;;;;;;;;;3.40;99.90;;;;;;5029944;28;19925;-71
2023/12/07 05:55:37;;;;;;;;;;;3.30;99.90;;;;;;5023191;28;19932;-71
2023/12/07 05:58:04;;;;;;;;;;;3.30;99.90;;;;;;5026737;28;19933;-72
2023/12/07 06:00:31;;;;;;;;;;;3.30;99.90;;;;;;5029951;28;20024;-72
2023/12/07 06:02:59;;;;;;;;;;;3.40;99.90;;;;;;5016522;28;20312;-71
2023/12/07 06:05:26;;;;;;;;;;;3.30;99.90;;;;;;5029617;28;20016;-73
2023/12/07 06:07:54;;;;;;;;;;;3.20;99.90;;;;;;5031600;28;20335;-71
2023/12/07 06:10:22;;;;;;;;;;;3.20;99.90;;;;;;5029471;28;20352;-70
2023/12/07 06:12:49;;;;;;;;;;;3.20;99.90;;;;;;5019461;28;20343;-71
2023/12/07 06:15:16;;;;;;;;;;;3.20;99.90;;;;;;5031898;28;20297;-72
2023/12/07 06:17:43;;;;;;;;;;;3.20;99.90;;;;;;5031648;28;19925;-73
2023/12/07 06:20:10;;;;;;;;;;;3.20;99.90;;;;;;5030155;28;19925;-72
2023/12/07 06:22:37;;;;;;;;;;;3.10;99.90;;;;;;5031673;28;20355;-72
2023/12/07 06:25:04;;;;;;;;;;;3.20;99.90;;;;;;5031345;28;19933;-72
2023/12/07 06:27:33;;;;;;;;;;;3.20;99.90;;;;;;5030098;28;19925;-72
2023/12/07 06:30:00;;;;;;;;;;;3.20;99.90;;;;;;5023126;28;19925;-73
2023/12/07 06:32:27;;;;;;;;;;;3.10;99.90;;;;;;5031240;28;19925;-71
2023/12/07 06:34:54;;;;;;;;;;;3.10;99.90;;;;;;5030124;28;20404;-71
2023/12/07 06:37:21;;;;;;;;;;;3.00;99.90;;;;;;5029423;28;19929;-71
2023/12/07 06:39:48;;;;;;;;;;;3.00;99.90;;;;;;5031929;28;19925;-71
2023/12/07 06:42:16;;;;;;;;;;;2.90;99.90;;;;;;5031878;28;19950;-72
2023/12/07 06:44:47;;;;;;;;;;;2.90;99.90;;;;;;5025090;28;20339;-72
2023/12/07 06:47:15;;;;;;;;;;;2.90;99.90;;;;;;5011783;28;19925;-72
2023/12/07 06:49:42;;;;;;;;;;;2.80;99.90;;;;;;5011694;28;20351;-72
2023/12/07 06:52:08;;;;;;;;;;;2.80;99.90;;;;;;5024835;28;20339;-72
2023/12/07 06:54:35;;;;;;;;;;;2.70;99.90;;;;;;5035599;28;19928;-72
2023/12/07 06:57:02;;;;;;;;;;;2.70;99.90;;;;;;5034545;28;19929;-71
2023/12/07 06:59:28;;;;;;;;;;;2.60;99.90;;;;;;5034429;28;20351;-71
2023/12/07 07:01:57;;;;;;;;;;;2.60;99.90;;;;;;5033104;28;19968;-72
2023/12/07 07:04:23;;;;;;;;;;;2.50;99.90;;;;;;5033733;28;20406;-72
2023/12/07 07:06:51;;;;;;;;;;;2.50;99.90;;;;;;5033604;28;19945;-72
2023/12/07 07:09:17;;;;;;;;;;;2.40;99.90;;;;;;5033474;28;20403;-72
2023/12/07 07:11:47;;;;;;;;;;;2.40;99.90;;;;;;5033759;28;20691;-72
2023/12/07 07:14:14;;;;;;;;;;;2.40;99.90;;;;;;5033600;28;19950;-71
2023/12/07 07:16:41;;;;;;;;;;;2.40;99.90;;;;;;5033283;28;19925;-71
2023/12/07 07:19:09;;;;;;;;;;;2.40;99.90;;;;;;5031616;28;19925;-71
2023/12/07 07:21:35;;;;;;;;;;;2.40;99.90;;;;;;5023342;28;19929;-71
2023/12/07 07:24:02;;;;;;;;;;;2.40;99.90;;;;;;5028933;28;19979;-72
2023/12/07 07:26:29;;;;;;;;;;;2.40;99.90;;;;;;5016983;28;20362;-70
2023/12/07 07:28:56;;;;;;;;;;;2.40;99.90;;;;;;5030781;28;19935;-69
2023/12/07 07:31:22;;;;;;;;;;;2.30;99.90;;;;;;5030145;28;19925;-69
2023/12/07 07:33:49;;;;;;;;;;;2.30;99.90;;;;;;5031448;28;19925;-69
2023/12/07 07:36:17;;;;;;;;;;;2.30;99.90;;;;;;5025304;28;19955;-69
2023/12/07 07:38:44;;;;;;;;;;;2.20;99.90;;;;;;5032860;28;19960;-72
2023/12/07 07:41:11;;;;;;;;;;;2.20;99.90;;;;;;5033838;28;20394;-71
2023/12/07 07:43:40;;;;;;;;;;;2.20;99.90;;;;;;5025514;28;20012;-72
2023/12/07 07:46:08;;;;;;;;;;;2.10;99.90;;;;;;5014150;28;19996;-71
2023/12/07 07:48:35;;;;;;;;;;;2.10;99.90;;;;;;5017362;28;19925;-71
2023/12/07 07:51:02;;;;;;;;;;;2.10;99.90;;;;;;5026774;28;20041;-70
2023/12/07 07:53:30;;;;;;;;;;;2.10;99.90;;;;;;5043413;28;19925;-70
2023/12/07 07:55:57;;;;;;;;;;;2.00;99.90;;;;;;5032976;28;20089;-70
2023/12/07 07:58:24;;;;;;;;;;;2.00;99.90;;;;;;5016419;28;20388;-70
2023/12/07 08:00:52;;;;;;;;;;;2.00;99.90;;;;;;5017128;28;20007;-70
2023/12/07 08:03:18;;;;;;;;;;;2.10;99.90;;;;;;5016922;28;20422;-70
2023/12/07 08:05:45;;;;;;;;;;;2.20;99.90;;;;;;5021970;28;20162;-70
2023/12/07 08:08:12;;;;;;;;;;;2.20;99.90;;;;;;5028664;28;19925;-70
2023/12/07 08:10:40;;;;;;;;;;;2.20;99.90;;;;;;5028295;28;20012;-70
2023/12/07 08:13:07;;;;;;;;;;;2.30;99.90;;;;;;5032007;28;19983;-70
2023/12/07 08:15:34;;;;;;;;;;;2.40;99.90;;;;;;5030891;28;20344;-70
2023/12/07 08:18:01;;;;;;;;;;;2.50;99.90;;;;;;5024682;28;19965;-70
2023/12/07 08:20:28;;;;;;;;;;;2.60;99.90;;;;;;5031474;28;19936;-70
2023/12/07 08:22:55;;;;;;;;;;;2.70;99.90;;;;;;5025403;28;19925;-70
2023/12/07 08:25:22;;;;;;;;;;;2.70;99.90;;;;;;5032914;28;20372;-70
2023/12/07 08:27:50;;;;;;;;;;;2.70;99.90;;;;;;5029277;28;19929;-69
2023/12/07 08:30:18;;;;;;;;;;;2.80;99.90;;;;;;5031140;28;19929;-70
2023/12/07 08:32:45;;;;;;;;;;;2.90;99.90;;;;;;5022541;28;20376;-70
2023/12/07 08:35:12;;;;;;;;;;;3.10;99.90;;;;;;5017802;28;19999;-70
2023/12/07 08:37:39;;;;;;;;;;;3.00;99.90;;;;;;5024375;28;19925;-70
2023/12/07 08:40:07;;;;;;;;;;;3.20;99.90;;;;;;5025048;28;20031;-70
2023/12/07 08:42:33;;;;;;;;;;;3.30;99.90;;;;;;5032047;28;19971;-71
2023/12/07 08:45:01;;;;;;;;;;;3.40;99.90;;;;;;5028095;28;19991;-70
2023/12/07 08:47:30;;;;;;;;;;;3.40;99.90;;;;;;5020789;28;20068;-71
2023/12/07 08:49:56;;;;;;;;;;;3.40;99.90;;;;;;5022052;28;20012;-70
2023/12/07 08:52:23;;;;;;;;;;;3.40;99.90;;;;;;5025917;28;19983;-70
2023/12/07 08:54:50;;;;;;;;;;;3.40;99.90;;;;;;5022234;28;19929;-70
2023/12/07 08:57:18;;;;;;;;;;;3.40;99.90;;;;;;5031082;28;19925;-71
2023/12/07 08:59:45;;;;;;;;;;;3.40;99.90;;;;;;5023330;28;19926;-71
2023/12/07 09:02:13;;;;;;;;;;;3.40;99.90;;;;;;5029565;28;20046;-70
2023/12/07 09:04:40;;;;;;;;;;;3.40;99.90;;;;;;5025412;28;19933;-70
2023/12/07 09:07:07;;;;;;;;;;;3.40;99.90;;;;;;5020310;28;19987;-70
2023/12/07 09:09:33;;;;;;;;;;;3.50;99.90;;;;;;5024155;28;19973;-70
2023/12/07 09:12:00;;;;;;;;;;;3.60;99.90;;;;;;5030738;28;20477;-70
2023/12/07 09:14:27;;;;;;;;;;;3.70;99.90;;;;;;5026109;28;19925;-70
2023/12/07 09:16:54;;;;;;;;;;;3.90;99.90;;;;;;5031517;28;20007;-70
2023/12/07 09:19:23;;;;;;;;;;;4.00;99.90;;;;;;5020432;28;20331;-70
2023/12/07 09:21:50;;;;;;;;;;;4.10;99.90;;;;;;5023648;28;19926;-71
2023/12/07 09:24:17;;;;;;;;;;;4.10;99.90;;;;;;5024591;28;19980;-70
2023/12/07 09:26:43;;;;;;;;;;;4.20;99.90;;;;;;5032938;28;19925;-71
2023/12/07 09:29:10;;;;;;;;;;;4.40;99.90;;;;;;5028150;28;20436;-70
2023/12/07 09:31:37;;;;;;;;;;;4.40;99.90;;;;;;5032151;28;19979;-70
2023/12/07 09:34:03;;;;;;;;;;;4.40;99.90;;;;;;5013338;28;19964;-71
2023/12/07 09:36:31;;;;;;;;;;;4.60;99.90;;;;;;5023603;28;19925;-70
2023/12/07 09:38:58;;;;;;;;;;;4.60;99.90;;;;;;5015354;28;19925;-71
2023/12/07 09:41:27;;;;;;;;;;;4.60;99.90;;;;;;5022852;28;20454;-70
2023/12/07 09:43:53;;;;;;;;;;;4.60;99.90;;;;;;5023426;28;19929;-71
2023/12/07 09:46:20;;;;;;;;;;;4.60;99.90;;;;;;5025577;28;19980;-70
2023/12/07 09:48:49;;;;;;;;;;;4.70;99.90;;;;;;5028810;28;19929;-70
2023/12/07 09:51:16;;;;;;;;;;;4.70;99.90;;;;;;5029187;28;19980;-70
2023/12/07 09:53:46;;;;;;;;;;;4.60;99.90;;;;;;5019722;28;20023;-70
2023/12/07 09:56:14;;;;;;;;;;;4.60;99.90;;;;;;5024616;28;20451;-70
2023/12/07 09:58:42;;;;;;;;;;;4.50;99.90;;;;;;5024332;28;20004;-70
2023/12/07 10:01:08;;;;;;;;;;;4.50;99.90;;;;;;5024386;28;19925;-70
2023/12/07 10:03:35;;;;;;;;;;;4.50;99.90;;;;;;5030009;28;20328;-70
2023/12/07 10:06:02;;;;;;;;;;;4.70;99.90;;;;;;5025506;28;19965;-71
2023/12/07 10:08:29;;;;;;;;;;;4.90;99.90;;;;;;5022452;28;20015;-70
2023/12/07 10:11:04;;;;;;;;;;;5.00;99.90;;;;;;5024679;28;20374;-70
2023/12/07 10:13:31;;;;;;;;;;;5.00;99.90;;;;;;5021909;28;19925;-71
2023/12/07 10:16:06;;;;;;;;;;;5.20;99.90;;;;;;5026267;28;20090;-71
2023/12/07 10:18:33;;;;;;;;;;;5.20;99.90;;;;;;5021102;28;19948;-71
2023/12/07 10:21:00;;;;;;;;;;;5.20;99.90;;;;;;5029307;28;20467;-71
2023/12/07 10:23:27;;;;;;;;;;;5.20;99.90;;;;;;5022291;28;19969;-70
2023/12/07 10:25:54;;;;;;;;;;;5.10;99.90;;;;;;5022338;28;20523;-71
2023/12/07 10:28:21;;;;;;;;;;;5.20;99.90;;;;;;5016266;28;19925;-71
2023/12/07 10:30:48;;;;;;;;;;;5.30;99.90;;;;;;5020635;28;19979;-70
2023/12/07 10:33:15;;;;;;;;;;;5.50;99.90;;;;;;5027557;28;20027;-72
2023/12/07 10:35:42;;;;;;;;;;;5.60;99.90;;;;;;5011673;28;19957;-70
2023/12/07 10:38:09;;;;;;;;;;;5.60;99.90;;;;;;5021457;28;19983;-71
2023/12/07 10:40:36;;;;;;;;;;;5.60;99.90;;;;;;5022788;28;19931;-71
2023/12/07 10:43:05;;;;;;;;;;;5.70;99.90;;;;;;5023273;28;19960;-70
2023/12/07 10:45:34;;;;;;;;;;;5.80;99.90;;;;;;5012700;28;19925;-71
2023/12/07 10:48:06;;;;;;;;;;;5.80;99.90;;;;;;5011483;28;19925;-70
2023/12/07 10:50:35;;;;;;;;;;;5.80;99.90;;;;;;5025006;28;20415;-70
2023/12/07 10:53:05;;;;;;;;;;;5.90;99.90;;;;;;5026634;28;19956;-69
2023/12/07 10:55:38;;;;;;;;;;;6.00;99.90;;;;;;5028267;28;20002;-70
2023/12/07 10:58:09;;;;;;;;;;;5.90;99.90;;;;;;5015540;28;19980;-70
2023/12/07 11:00:37;;;;;;;;;;;5.90;99.90;;;;;;5017564;28;19979;-71
2023/12/07 11:03:04;;;;;;;;;;;5.90;99.90;;;;;;5029920;28;19929;-70
2023/12/07 11:05:31;;;;;;;;;;;5.80;99.90;;;;;;5029747;28;19976;-71
2023/12/07 11:08:00;;;;;;;;;;;5.70;99.90;;;;;;5027529;28;19975;-71
2023/12/07 11:10:32;;;;;;;;;;;5.70;99.90;;;;;;5022065;28;20007;-70
2023/12/07 11:13:06;;;;;;;;;;;5.70;99.90;;;;;;5025146;28;19960;-70
2023/12/07 11:15:33;;;;;;;;;;;5.70;99.90;;;;;;5028583;28;20004;-73
2023/12/07 11:18:03;;;;;;;;;;;5.70;99.90;;;;;;5015926;28;19929;-70
2023/12/07 11:20:33;;;;;;;;;;;5.80;99.90;;;;;;5028782;28;19931;-69
2023/12/07 11:23:00;;;;;;;;;;;5.80;99.90;;;;;;5025217;28;20020;-70
2023/12/07 11:25:27;;;;;;;;;;;5.90;99.90;;;;;;5019353;28;19960;-71
2023/12/07 11:28:00;;;;;;;;;;;5.90;99.90;;;;;;5024463;28;20396;-70
2023/12/07 11:30:27;;;;;;;;;;;6.00;99.90;;;;;;5022501;28;19979;-70
2023/12/07 11:32:54;;;;;;;;;;;6.10;99.90;;;;;;5025522;28;19933;-70
2023/12/07 11:35:22;;;;;;;;;;;6.10;99.90;;;;;;5021634;28;19925;-71
2023/12/07 11:38:03;;;;;;;;;;;6.10;99.90;;;;;;5027194;28;19929;-72
2023/12/07 11:40:30;;;;;;;;;;;6.10;99.90;;;;;;5021210;28;20039;-71
2023/12/07 11:42:57;;;;;;;;;;;6.20;99.90;;;;;;5024659;28;19925;-71
2023/12/07 11:45:43;;;;;;;;;;;6.20;99.90;;;;;;5027428;28;19929;-70
2023/12/07 11:48:11;;;;;;;;;;;6.20;99.90;;;;;;5031443;28;19925;-70
2023/12/07 11:50:54;;;;;;;;;;;6.20;99.90;;;;;;5018698;28;19999;-70
2023/12/07 11:53:22;;;;;;;;;;;6.10;99.90;;;;;;5024581;28;20021;-70
2023/12/07 11:55:48;;;;;;;;;;;6.00;99.90;;;;;;5027796;28;19929;-70
2023/12/07 11:58:15;;;;;;;;;;;6.10;99.90;;;;;;5032722;28;20293;-70
2023/12/07 12:00:42;;;;;;;;;;;6.10;99.90;;;;;;5025408;28;20019;-70
2023/12/07 12:03:09;;;;;;;;;;;6.10;99.90;;;;;;5030209;28;19941;-70
2023/12/07 12:05:38;;;;;;;;;;;6.00;99.90;;;;;;5027033;28;19965;-70
2023/12/07 12:08:07;;;;;;;;;;;5.90;99.90;;;;;;5020840;28;19925;-70
2023/12/07 12:10:33;;;;;;;;;;;5.90;99.90;;;;;;5033639;28;19931;-70
2023/12/07 12:13:02;;;;;;;;;;;5.90;99.90;;;;;;5031907;28;20081;-70
2023/12/07 12:15:29;;;;;;;;;;;5.90;99.90;;;;;;5028123;28;19925;-71
2023/12/07 12:17:56;;;;;;;;;;;5.90;99.90;;;;;;5029727;28;19932;-68
2023/12/07 12:20:23;;;;;;;;;;;5.80;99.90;;;;;;5023661;28;19987;-70
2023/12/07 12:22:50;;;;;;;;;;;5.90;99.90;;;;;;5029904;28;19925;-70
2023/12/07 12:25:20;;;;;;;;;;;5.80;99.90;;;;;;5028868;28;19925;-70
2023/12/07 12:27:47;;;;;;;;;;;5.80;99.90;;;;;;5024874;28;20012;-71
2023/12/07 12:30:14;;;;;;;;;;;5.80;99.90;;;;;;5020066;28;19980;-70
2023/12/07 12:32:44;;;;;;;;;;;5.70;99.90;;;;;;5019320;28;19936;-70
2023/12/07 12:35:11;;;;;;;;;;;5.70;99.90;;;;;;5020259;28;19925;-71
2023/12/07 12:37:39;;;;;;;;;;;5.80;99.90;;;;;;5020100;28;20435;-70
2023/12/07 12:40:11;;;;;;;;;;;5.60;99.90;;;;;;5016919;28;19956;-71
2023/12/07 12:42:40;;;;;;;;;;;5.70;99.90;;;;;;5022602;28;19926;-71
2023/12/07 12:45:08;;;;;;;;;;;5.70;99.90;;;;;;5016897;28;19956;-71
2023/12/07 12:47:35;;;;;;;;;;;5.70;99.90;;;;;;5034675;28;19960;-70
2023/12/07 12:50:04;;;;;;;;;;;5.70;99.90;;;;;;5032058;28;20495;-70
2023/12/07 12:52:31;;;;;;;;;;;5.80;99.90;;;;;;5030049;28;19925;-71
2023/12/07 12:54:58;;;;;;;;;;;5.80;99.90;;;;;;5021233;28;19932;-70
2023/12/07 12:57:25;;;;;;;;;;;5.90;99.90;;;;;;5018134;28;19925;-70
2023/12/07 12:59:53;;;;;;;;;;;5.90;99.90;;;;;;5020942;28;19991;-70
2023/12/07 13:02:20;;;;;;;;;;;5.90;99.90;;;;;;5023341;28;19930;-70
2023/12/07 13:04:47;;;;;;;;;;;5.90;99.90;;;;;;5014435;28;20403;-71
2023/12/07 13:07:14;;;;;;;;;;;5.90;99.90;;;;;;5014094;28;19929;-71
2023/12/07 13:09:40;;;;;;;;;;;5.90;99.90;;;;;;5013907;28;19925;-71
2023/12/07 13:12:07;;;;;;;;;;;5.90;99.90;;;;;;5015717;28;20396;-70
2023/12/07 13:14:35;;;;;;;;;;;6.00;99.90;;;;;;5033879;28;20389;-70
2023/12/07 13:17:03;;;;;;;;;;;6.00;99.90;;;;;;5016359;28;19940;-71
2023/12/07 13:19:31;;;;;;;;;;;6.00;99.90;;;;;;5013442;28;19926;-70
2023/12/07 13:21:58;;;;;;;;;;;6.00;99.90;;;;;;5022823;28;20018;-70
2023/12/07 13:24:25;;;;;;;;;;;6.10;99.90;;;;;;5013266;28;19929;-70
2023/12/07 13:26:51;;;;;;;;;;;6.10;99.90;;;;;;5022455;28;19971;-72
2023/12/07 13:29:18;;;;;;;;;;;6.10;99.90;;;;;;5033024;28;19931;-70
2023/12/07 13:31:46;;;;;;;;;;;6.10;99.90;;;;;;5026859;28;19987;-71
2023/12/07 13:34:14;;;;;;;;;;;6.10;99.90;;;;;;5024603;28;20070;-70
2023/12/07 13:36:41;;;;;;;;;;;6.00;99.90;;;;;;5030478;28;19971;-70
2023/12/07 13:39:08;;;;;;;;;;;6.00;99.90;;;;;;5021002;28;19972;-71
2023/12/07 13:41:35;;;;;;;;;;;6.00;99.90;;;;;;5020117;28;19986;-69
2023/12/07 13:44:02;;;;;;;;;;;6.00;99.90;;;;;;5012030;28;19960;-71
2023/12/07 13:46:30;;;;;;;;;;;6.00;99.90;;;;;;5015437;28;19961;-70
2023/12/07 13:48:57;;;;;;;;;;;6.00;99.90;;;;;;5018376;28;19965;-70
2023/12/07 13:51:25;;;;;;;;;;;6.00;99.90;;;;;;5008496;28;19933;-71
2023/12/07 13:53:55;;;;;;;;;;;6.00;99.90;;;;;;5022470;28;19941;-70
2023/12/07 13:56:23;;;;;;;;;;;6.00;99.90;;;;;;5017785;28;19932;-71
2023/12/07 13:58:50;;;;;;;;;;;6.00;99.90;;;;;;5015585;28;20057;-72
2023/12/07 14:01:16;;;;;;;;;;;5.90;99.90;;;;;;5019402;28;20407;-71
2023/12/07 14:03:43;;;;;;;;;;;5.90;99.90;;;;;;4998750;28;19972;-72
2023/12/07 14:06:12;;;;;;;;;;;5.90;99.90;;;;;;5018176;28;19956;-71
2023/12/07 14:08:40;;;;;;;;;;;5.90;99.90;;;;;;5017674;28;19925;-71
2023/12/07 14:11:07;;;;;;;;;;;5.80;99.90;;;;;;5012910;28;20380;-72
2023/12/07 14:13:33;;;;;;;;;;;5.80;99.90;;;;;;5008851;28;20050;-71
2023/12/07 14:16:00;;;;;;;;;;;5.80;99.90;;;;;;5020600;28;20457;-72
2023/12/07 14:18:27;;;;;;;;;;;5.80;99.90;;;;;;5020490;28;19960;-72
2023/12/07 14:20:54;;;;;;;;;;;5.70;99.90;;;;;;5014260;28;19933;-72
2023/12/07 14:23:20;;;;;;;;;;;5.70;99.90;;;;;;5013547;28;19940;-72
2023/12/07 14:25:51;;;;;;;;;;;5.60;99.90;;;;;;5013230;28;19933;-71
2023/12/07 14:28:18;;;;;;;;;;;5.60;99.90;;;;;;5009893;28;19933;-71
2023/12/07 14:30:45;;;;;;;;;;;5.60;99.90;;;;;;5020837;28;19990;-71
2023/12/07 14:33:12;;;;;;;;;;;5.50;99.90;;;;;;5016396;28;19925;-71